VTBD/DMK METAR and TAF weather

Enter ICAO airport designator
Station Type Date Time Source
VTBD METAR 2019/08/18 09:00 UTC NOAA

VTBD 180900Z 24008KT 190V280 9999 FEW020 SCT035 34/23 Q1007 NOSIG


Station Type Date Time Source
VTBD Decoded METAR 2019/08/18 09:00 UTC NOAA

Station name not available
Aug 18, 2019 - 05:00 AM EDT / 2019.08.18 0900 UTC
Wind: from the WSW (240 degrees) at 9 MPH (8 KT) (direction variable):0
Visibility: greater than 7 mile(s):0
Sky conditions: partly cloudy
Temperature: 93 F (34 C)
Heat index: 101.8 F (38.8 C):1
Dew Point: 73 F (23 C)
Relative Humidity: 52%
Pressure (altimeter): 29.74 in. Hg (1007 hPa)
ob: VTBD 180900Z 24008KT 190V280 9999 FEW020 SCT035 34/23 Q1007 NOSIG
cycle: 9

Station Type Date Time Source
VTBD TAF 2019/08/18 06:37 UTC NOAA

TAF VTBD 180500Z 1806/1912 21008KT 9000 FEW020 SCT100
TEMPO 1808/1814 24010G25KT 5000 TSRA FEW018CB SCT030 BKN100

Example: see airport list